sensor_id;sensor_type;location;lat;lon;timestamp;P1;durP1;ratioP1;P2;durP2;ratioP2
53646;SDS011;39550;52.230;5.194;2024-01-11T00:02:07;28.55;;;13.38;;
53646;SDS011;39550;52.230;5.194;2024-01-11T00:04:32;22.85;;;12.60;;
53646;SDS011;39550;52.230;5.194;2024-01-11T00:06:57;22.00;;;12.48;;
53646;SDS011;39550;52.230;5.194;2024-01-11T00:09:23;25.63;;;13.60;;
53646;SDS011;39550;52.230;5.194;2024-01-11T00:11:48;22.30;;;12.43;;
53646;SDS011;39550;52.230;5.194;2024-01-11T00:14:14;23.42;;;12.73;;
53646;SDS011;39550;52.230;5.194;2024-01-11T00:16:40;21.40;;;11.70;;
53646;SDS011;39550;52.230;5.194;2024-01-11T00:19:06;24.13;;;11.38;;
53646;SDS011;39550;52.230;5.194;2024-01-11T00:21:31;21.48;;;11.00;;
53646;SDS011;39550;52.230;5.194;2024-01-11T00:23:56;20.48;;;11.18;;
53646;SDS011;39550;52.230;5.194;2024-01-11T00:26:22;22.65;;;12.57;;
53646;SDS011;39550;52.230;5.194;2024-01-11T00:28:47;20.02;;;11.10;;
53646;SDS011;39550;52.230;5.194;2024-01-11T00:31:12;23.20;;;12.55;;
53646;SDS011;39550;52.230;5.194;2024-01-11T00:33:38;20.98;;;12.43;;
53646;SDS011;39550;52.230;5.194;2024-01-11T00:36:04;19.60;;;11.30;;
53646;SDS011;39550;52.230;5.194;2024-01-11T00:38:29;17.65;;;10.48;;
53646;SDS011;39550;52.230;5.194;2024-01-11T00:40:54;20.45;;;11.30;;
53646;SDS011;39550;52.230;5.194;2024-01-11T00:43:20;22.42;;;11.60;;
53646;SDS011;39550;52.230;5.194;2024-01-11T00:45:45;23.75;;;11.38;;
53646;SDS011;39550;52.230;5.194;2024-01-11T00:48:11;22.23;;;11.25;;
53646;SDS011;39550;52.230;5.194;2024-01-11T00:50:36;20.42;;;10.93;;
53646;SDS011;39550;52.230;5.194;2024-01-11T00:53:02;22.58;;;11.40;;
53646;SDS011;39550;52.230;5.194;2024-01-11T00:55:28;21.15;;;10.40;;
53646;SDS011;39550;52.230;5.194;2024-01-11T00:57:53;18.70;;;10.63;;
53646;SDS011;39550;52.230;5.194;2024-01-11T01:00:18;18.42;;;10.00;;
53646;SDS011;39550;52.230;5.194;2024-01-11T01:02:44;17.63;;;10.48;;
53646;SDS011;39550;52.230;5.194;2024-01-11T01:05:09;20.13;;;10.43;;
53646;SDS011;39550;52.230;5.194;2024-01-11T01:07:35;18.30;;;10.05;;
53646;SDS011;39550;52.230;5.194;2024-01-11T01:10:00;19.15;;;8.95;;
53646;SDS011;39550;52.230;5.194;2024-01-11T01:12:26;17.85;;;9.88;;
53646;SDS011;39550;52.230;5.194;2024-01-11T01:14:57;20.45;;;11.30;;
53646;SDS011;39550;52.230;5.194;2024-01-11T01:17:23;18.80;;;9.73;;
53646;SDS011;39550;52.230;5.194;2024-01-11T01:19:49;19.67;;;9.88;;
53646;SDS011;39550;52.230;5.194;2024-01-11T01:22:14;16.73;;;8.98;;
53646;SDS011;39550;52.230;5.194;2024-01-11T01:24:39;18.48;;;10.07;;
53646;SDS011;39550;52.230;5.194;2024-01-11T01:27:05;17.42;;;9.25;;
53646;SDS011;39550;52.230;5.194;2024-01-11T01:29:30;18.02;;;9.88;;
53646;SDS011;39550;52.230;5.194;2024-01-11T01:31:55;18.42;;;9.40;;
53646;SDS011;39550;52.230;5.194;2024-01-11T01:34:21;18.23;;;9.48;;
53646;SDS011;39550;52.230;5.194;2024-01-11T01:36:46;17.73;;;9.45;;
53646;SDS011;39550;52.230;5.194;2024-01-11T01:39:11;18.23;;;8.88;;
53646;SDS011;39550;52.230;5.194;2024-01-11T01:41:37;18.63;;;9.30;;
53646;SDS011;39550;52.230;5.194;2024-01-11T01:44:02;14.43;;;8.07;;
53646;SDS011;39550;52.230;5.194;2024-01-11T01:46:28;16.83;;;9.95;;
53646;SDS011;39550;52.230;5.194;2024-01-11T01:48:53;15.25;;;8.23;;
53646;SDS011;39550;52.230;5.194;2024-01-11T01:51:22;17.30;;;9.63;;
53646;SDS011;39550;52.230;5.194;2024-01-11T01:53:49;17.20;;;9.10;;
53646;SDS011;39550;52.230;5.194;2024-01-11T01:56:18;14.50;;;8.55;;
53646;SDS011;39550;52.230;5.194;2024-01-11T01:58:44;16.30;;;8.43;;
53646;SDS011;39550;52.230;5.194;2024-01-11T02:01:11;15.15;;;8.73;;
53646;SDS011;39550;52.230;5.194;2024-01-11T02:03:37;15.73;;;9.30;;
53646;SDS011;39550;52.230;5.194;2024-01-11T02:06:03;16.85;;;8.63;;
53646;SDS011;39550;52.230;5.194;2024-01-11T02:08:31;15.55;;;8.55;;
53646;SDS011;39550;52.230;5.194;2024-01-11T02:10:58;14.48;;;8.63;;
53646;SDS011;39550;52.230;5.194;2024-01-11T02:13:25;17.20;;;9.00;;
53646;SDS011;39550;52.230;5.194;2024-01-11T02:15:50;14.85;;;8.05;;
53646;SDS011;39550;52.230;5.194;2024-01-11T02:18:15;14.63;;;8.52;;
53646;SDS011;39550;52.230;5.194;2024-01-11T02:20:41;15.02;;;8.20;;
53646;SDS011;39550;52.230;5.194;2024-01-11T02:23:08;14.15;;;8.32;;
53646;SDS011;39550;52.230;5.194;2024-01-11T02:25:39;13.38;;;8.30;;
53646;SDS011;39550;52.230;5.194;2024-01-11T02:28:05;15.38;;;8.68;;
53646;SDS011;39550;52.230;5.194;2024-01-11T02:30:30;14.02;;;8.20;;
53646;SDS011;39550;52.230;5.194;2024-01-11T02:32:55;16.20;;;8.25;;
53646;SDS011;39550;52.230;5.194;2024-01-11T02:35:22;14.32;;;8.27;;
53646;SDS011;39550;52.230;5.194;2024-01-11T02:37:49;14.80;;;8.00;;
53646;SDS011;39550;52.230;5.194;2024-01-11T02:40:15;12.35;;;7.38;;
53646;SDS011;39550;52.230;5.194;2024-01-11T02:42:40;14.52;;;7.70;;
53646;SDS011;39550;52.230;5.194;2024-01-11T02:45:05;12.40;;;7.90;;
53646;SDS011;39550;52.230;5.194;2024-01-11T02:47:32;11.75;;;6.97;;
53646;SDS011;39550;52.230;5.194;2024-01-11T02:49:57;13.38;;;7.60;;
53646;SDS011;39550;52.230;5.194;2024-01-11T02:52:23;13.73;;;7.28;;
53646;SDS011;39550;52.230;5.194;2024-01-11T02:54:48;14.38;;;8.35;;
53646;SDS011;39550;52.230;5.194;2024-01-11T02:57:13;13.85;;;6.88;;
53646;SDS011;39550;52.230;5.194;2024-01-11T02:59:39;13.70;;;8.48;;
53646;SDS011;39550;52.230;5.194;2024-01-11T03:02:05;13.65;;;7.72;;
53646;SDS011;39550;52.230;5.194;2024-01-11T03:04:30;15.07;;;7.82;;
53646;SDS011;39550;52.230;5.194;2024-01-11T03:06:55;12.93;;;7.25;;
53646;SDS011;39550;52.230;5.194;2024-01-11T03:09:21;12.82;;;7.18;;
53646;SDS011;39550;52.230;5.194;2024-01-11T03:11:46;12.77;;;7.25;;
53646;SDS011;39550;52.230;5.194;2024-01-11T03:14:11;12.30;;;7.18;;
53646;SDS011;39550;52.230;5.194;2024-01-11T03:16:37;11.63;;;6.55;;
53646;SDS011;39550;52.230;5.194;2024-01-11T03:19:04;14.18;;;7.43;;
53646;SDS011;39550;52.230;5.194;2024-01-11T03:21:30;13.27;;;7.15;;
53646;SDS011;39550;52.230;5.194;2024-01-11T03:23:55;14.02;;;7.57;;
53646;SDS011;39550;52.230;5.194;2024-01-11T03:26:20;13.23;;;7.60;;
53646;SDS011;39550;52.230;5.194;2024-01-11T03:28:46;13.07;;;7.68;;
53646;SDS011;39550;52.230;5.194;2024-01-11T03:31:11;12.48;;;7.00;;
53646;SDS011;39550;52.230;5.194;2024-01-11T03:33:37;12.23;;;6.53;;
53646;SDS011;39550;52.230;5.194;2024-01-11T03:36:09;11.45;;;7.18;;
53646;SDS011;39550;52.230;5.194;2024-01-11T03:38:35;10.95;;;6.22;;
53646;SDS011;39550;52.230;5.194;2024-01-11T03:41:00;15.05;;;7.25;;
53646;SDS011;39550;52.230;5.194;2024-01-11T03:43:26;10.45;;;6.75;;
53646;SDS011;39550;52.230;5.194;2024-01-11T03:45:51;12.82;;;7.07;;
53646;SDS011;39550;52.230;5.194;2024-01-11T03:48:16;12.52;;;7.03;;
53646;SDS011;39550;52.230;5.194;2024-01-11T03:50:42;11.73;;;6.22;;
53646;SDS011;39550;52.230;5.194;2024-01-11T03:53:07;12.70;;;6.72;;
53646;SDS011;39550;52.230;5.194;2024-01-11T03:55:33;12.25;;;6.47;;
53646;SDS011;39550;52.230;5.194;2024-01-11T03:57:58;12.80;;;7.13;;
53646;SDS011;39550;52.230;5.194;2024-01-11T04:00:24;13.52;;;6.63;;
53646;SDS011;39550;52.230;5.194;2024-01-11T04:02:49;14.05;;;7.50;;
53646;SDS011;39550;52.230;5.194;2024-01-11T04:05:14;10.80;;;6.47;;
53646;SDS011;39550;52.230;5.194;2024-01-11T04:07:40;13.10;;;5.90;;
53646;SDS011;39550;52.230;5.194;2024-01-11T04:10:06;11.65;;;5.88;;
53646;SDS011;39550;52.230;5.194;2024-01-11T04:12:34;12.70;;;6.13;;
53646;SDS011;39550;52.230;5.194;2024-01-11T04:15:01;11.85;;;6.22;;
53646;SDS011;39550;52.230;5.194;2024-01-11T04:17:27;13.27;;;7.10;;
53646;SDS011;39550;52.230;5.194;2024-01-11T04:19:52;10.93;;;6.22;;
53646;SDS011;39550;52.230;5.194;2024-01-11T04:22:17;10.02;;;6.45;;
53646;SDS011;39550;52.230;5.194;2024-01-11T04:24:43;10.95;;;6.35;;
53646;SDS011;39550;52.230;5.194;2024-01-11T04:27:08;14.13;;;6.53;;
53646;SDS011;39550;52.230;5.194;2024-01-11T04:29:33;12.38;;;6.40;;
53646;SDS011;39550;52.230;5.194;2024-01-11T04:31:59;10.63;;;5.93;;
53646;SDS011;39550;52.230;5.194;2024-01-11T04:34:24;10.48;;;6.15;;
53646;SDS011;39550;52.230;5.194;2024-01-11T04:36:49;10.75;;;6.07;;
53646;SDS011;39550;52.230;5.194;2024-01-11T04:39:15;9.95;;;6.25;;
53646;SDS011;39550;52.230;5.194;2024-01-11T04:41:41;12.10;;;5.93;;
53646;SDS011;39550;52.230;5.194;2024-01-11T04:44:06;11.70;;;6.18;;
53646;SDS011;39550;52.230;5.194;2024-01-11T04:46:32;11.90;;;6.60;;
53646;SDS011;39550;52.230;5.194;2024-01-11T04:48:57;9.50;;;6.18;;
53646;SDS011;39550;52.230;5.194;2024-01-11T04:51:22;9.35;;;5.25;;
53646;SDS011;39550;52.230;5.194;2024-01-11T04:53:48;11.43;;;6.00;;
53646;SDS011;39550;52.230;5.194;2024-01-11T04:56:14;11.05;;;6.38;;
53646;SDS011;39550;52.230;5.194;2024-01-11T04:58:40;10.68;;;6.38;;
53646;SDS011;39550;52.230;5.194;2024-01-11T05:01:07;9.70;;;5.70;;
53646;SDS011;39550;52.230;5.194;2024-01-11T05:06:01;11.10;;;5.73;;
53646;SDS011;39550;52.230;5.194;2024-01-11T05:08:27;8.68;;;5.57;;
53646;SDS011;39550;52.230;5.194;2024-01-11T05:10:52;10.50;;;5.70;;
53646;SDS011;39550;52.230;5.194;2024-01-11T05:13:18;10.27;;;6.10;;
53646;SDS011;39550;52.230;5.194;2024-01-11T05:15:43;8.82;;;5.60;;
53646;SDS011;39550;52.230;5.194;2024-01-11T05:18:09;10.10;;;5.95;;
53646;SDS011;39550;52.230;5.194;2024-01-11T05:20:35;9.57;;;6.15;;
53646;SDS011;39550;52.230;5.194;2024-01-11T05:23:01;8.73;;;5.30;;
53646;SDS011;39550;52.230;5.194;2024-01-11T05:25:26;8.80;;;5.97;;
53646;SDS011;39550;52.230;5.194;2024-01-11T05:27:52;7.55;;;4.75;;
53646;SDS011;39550;52.230;5.194;2024-01-11T05:30:17;7.85;;;5.45;;
53646;SDS011;39550;52.230;5.194;2024-01-11T05:32:43;9.07;;;5.47;;
53646;SDS011;39550;52.230;5.194;2024-01-11T05:35:08;9.35;;;5.70;;
53646;SDS011;39550;52.230;5.194;2024-01-11T05:37:35;9.75;;;5.68;;
53646;SDS011;39550;52.230;5.194;2024-01-11T05:40:01;9.20;;;5.50;;
53646;SDS011;39550;52.230;5.194;2024-01-11T05:42:26;8.13;;;5.32;;
53646;SDS011;39550;52.230;5.194;2024-01-11T05:44:51;9.00;;;5.35;;
53646;SDS011;39550;52.230;5.194;2024-01-11T05:47:17;9.30;;;5.50;;
53646;SDS011;39550;52.230;5.194;2024-01-11T05:49:43;8.07;;;5.07;;
53646;SDS011;39550;52.230;5.194;2024-01-11T05:52:08;9.23;;;5.45;;
53646;SDS011;39550;52.230;5.194;2024-01-11T05:54:33;9.20;;;5.50;;
53646;SDS011;39550;52.230;5.194;2024-01-11T05:56:59;10.80;;;6.05;;
53646;SDS011;39550;52.230;5.194;2024-01-11T05:59:24;9.38;;;5.63;;
53646;SDS011;39550;52.230;5.194;2024-01-11T06:01:50;9.57;;;5.40;;
53646;SDS011;39550;52.230;5.194;2024-01-11T06:04:15;9.40;;;5.53;;
53646;SDS011;39550;52.230;5.194;2024-01-11T06:06:41;10.52;;;5.45;;
53646;SDS011;39550;52.230;5.194;2024-01-11T06:09:07;8.50;;;5.78;;
53646;SDS011;39550;52.230;5.194;2024-01-11T06:11:32;8.90;;;5.45;;
53646;SDS011;39550;52.230;5.194;2024-01-11T06:13:58;9.07;;;5.88;;
53646;SDS011;39550;52.230;5.194;2024-01-11T06:16:23;8.02;;;5.00;;
53646;SDS011;39550;52.230;5.194;2024-01-11T06:18:49;10.18;;;5.70;;
53646;SDS011;39550;52.230;5.194;2024-01-11T06:21:15;9.07;;;5.13;;
53646;SDS011;39550;52.230;5.194;2024-01-11T06:23:42;17.75;;;7.20;;
53646;SDS011;39550;52.230;5.194;2024-01-11T06:26:10;15.35;;;6.70;;
53646;SDS011;39550;52.230;5.194;2024-01-11T06:28:36;11.05;;;6.03;;
53646;SDS011;39550;52.230;5.194;2024-01-11T06:31:01;11.73;;;6.32;;
53646;SDS011;39550;52.230;5.194;2024-01-11T06:33:27;12.57;;;5.53;;
53646;SDS011;39550;52.230;5.194;2024-01-11T06:35:53;16.98;;;7.03;;
53646;SDS011;39550;52.230;5.194;2024-01-11T06:38:18;10.55;;;5.65;;
53646;SDS011;39550;52.230;5.194;2024-01-11T06:40:44;14.93;;;5.88;;
53646;SDS011;39550;52.230;5.194;2024-01-11T06:43:09;10.57;;;4.57;;
53646;SDS011;39550;52.230;5.194;2024-01-11T06:45:34;9.27;;;5.28;;
53646;SDS011;39550;52.230;5.194;2024-01-11T06:48:00;9.95;;;5.38;;
53646;SDS011;39550;52.230;5.194;2024-01-11T06:50:25;11.60;;;5.38;;
53646;SDS011;39550;52.230;5.194;2024-01-11T06:52:51;10.52;;;5.05;;
53646;SDS011;39550;52.230;5.194;2024-01-11T06:55:16;9.00;;;5.00;;
53646;SDS011;39550;52.230;5.194;2024-01-11T06:57:41;10.43;;;5.30;;
53646;SDS011;39550;52.230;5.194;2024-01-11T07:00:07;10.50;;;5.45;;
53646;SDS011;39550;52.230;5.194;2024-01-11T07:02:32;8.95;;;5.20;;
53646;SDS011;39550;52.230;5.194;2024-01-11T07:04:58;10.23;;;5.22;;
53646;SDS011;39550;52.230;5.194;2024-01-11T07:07:23;11.60;;;4.97;;
53646;SDS011;39550;52.230;5.194;2024-01-11T07:09:48;9.68;;;4.72;;
53646;SDS011;39550;52.230;5.194;2024-01-11T07:12:20;9.05;;;4.70;;
53646;SDS011;39550;52.230;5.194;2024-01-11T07:14:46;8.57;;;4.85;;
53646;SDS011;39550;52.230;5.194;2024-01-11T07:17:11;8.00;;;4.45;;
53646;SDS011;39550;52.230;5.194;2024-01-11T07:19:36;7.97;;;4.68;;
53646;SDS011;39550;52.230;5.194;2024-01-11T07:22:02;8.63;;;5.15;;
53646;SDS011;39550;52.230;5.194;2024-01-11T07:24:27;9.52;;;4.85;;
53646;SDS011;39550;52.230;5.194;2024-01-11T07:26:54;10.15;;;5.00;;
53646;SDS011;39550;52.230;5.194;2024-01-11T07:29:20;12.20;;;5.47;;
53646;SDS011;39550;52.230;5.194;2024-01-11T07:31:45;12.30;;;5.82;;
53646;SDS011;39550;52.230;5.194;2024-01-11T07:34:10;13.18;;;6.57;;
53646;SDS011;39550;52.230;5.194;2024-01-11T07:36:36;12.05;;;5.20;;
53646;SDS011;39550;52.230;5.194;2024-01-11T07:39:01;8.85;;;5.20;;
53646;SDS011;39550;52.230;5.194;2024-01-11T07:41:27;10.98;;;5.40;;
53646;SDS011;39550;52.230;5.194;2024-01-11T07:43:53;10.00;;;5.35;;
53646;SDS011;39550;52.230;5.194;2024-01-11T07:46:23;9.00;;;5.32;;
53646;SDS011;39550;52.230;5.194;2024-01-11T07:48:48;12.25;;;5.90;;
53646;SDS011;39550;52.230;5.194;2024-01-11T07:51:14;9.80;;;5.35;;
53646;SDS011;39550;52.230;5.194;2024-01-11T07:53:39;13.15;;;5.40;;
53646;SDS011;39550;52.230;5.194;2024-01-11T07:56:06;10.00;;;5.65;;
53646;SDS011;39550;52.230;5.194;2024-01-11T07:58:31;8.90;;;5.68;;
53646;SDS011;39550;52.230;5.194;2024-01-11T08:00:56;10.70;;;5.93;;
53646;SDS011;39550;52.230;5.194;2024-01-11T08:03:22;11.23;;;5.28;;
53646;SDS011;39550;52.230;5.194;2024-01-11T08:05:47;13.07;;;5.95;;
53646;SDS011;39550;52.230;5.194;2024-01-11T08:08:15;10.65;;;5.22;;
53646;SDS011;39550;52.230;5.194;2024-01-11T08:10:40;8.45;;;4.90;;
53646;SDS011;39550;52.230;5.194;2024-01-11T08:13:07;9.15;;;5.60;;
53646;SDS011;39550;52.230;5.194;2024-01-11T08:15:34;10.15;;;5.38;;
53646;SDS011;39550;52.230;5.194;2024-01-11T08:18:00;12.32;;;5.53;;
53646;SDS011;39550;52.230;5.194;2024-01-11T08:20:25;9.18;;;5.05;;
53646;SDS011;39550;52.230;5.194;2024-01-11T08:22:50;9.20;;;5.25;;
53646;SDS011;39550;52.230;5.194;2024-01-11T08:25:16;8.25;;;4.88;;
53646;SDS011;39550;52.230;5.194;2024-01-11T08:27:42;9.45;;;5.07;;
53646;SDS011;39550;52.230;5.194;2024-01-11T08:30:08;6.85;;;5.07;;
53646;SDS011;39550;52.230;5.194;2024-01-11T08:32:33;12.00;;;5.43;;
53646;SDS011;39550;52.230;5.194;2024-01-11T08:35:04;13.70;;;5.90;;
53646;SDS011;39550;52.230;5.194;2024-01-11T08:37:30;11.07;;;5.38;;
53646;SDS011;39550;52.230;5.194;2024-01-11T08:39:55;11.88;;;5.40;;
53646;SDS011;39550;52.230;5.194;2024-01-11T08:42:20;9.55;;;5.25;;
53646;SDS011;39550;52.230;5.194;2024-01-11T08:44:46;12.15;;;5.63;;
53646;SDS011;39550;52.230;5.194;2024-01-11T08:47:12;10.05;;;4.97;;
53646;SDS011;39550;52.230;5.194;2024-01-11T08:49:40;9.43;;;5.45;;
53646;SDS011;39550;52.230;5.194;2024-01-11T08:52:05;9.93;;;4.97;;
53646;SDS011;39550;52.230;5.194;2024-01-11T08:54:33;10.85;;;4.85;;
53646;SDS011;39550;52.230;5.194;2024-01-11T08:56:58;11.05;;;4.60;;
53646;SDS011;39550;52.230;5.194;2024-01-11T08:59:24;8.68;;;5.20;;
53646;SDS011;39550;52.230;5.194;2024-01-11T09:01:50;9.50;;;5.57;;
53646;SDS011;39550;52.230;5.194;2024-01-11T09:04:18;8.40;;;4.80;;
53646;SDS011;39550;52.230;5.194;2024-01-11T09:06:44;8.75;;;4.85;;
53646;SDS011;39550;52.230;5.194;2024-01-11T09:09:10;8.43;;;5.00;;
53646;SDS011;39550;52.230;5.194;2024-01-11T09:11:36;8.15;;;4.90;;
53646;SDS011;39550;52.230;5.194;2024-01-11T09:14:01;8.27;;;5.00;;
53646;SDS011;39550;52.230;5.194;2024-01-11T09:16:28;9.48;;;5.43;;
53646;SDS011;39550;52.230;5.194;2024-01-11T09:18:53;10.20;;;4.93;;
53646;SDS011;39550;52.230;5.194;2024-01-11T09:21:19;11.88;;;5.10;;
53646;SDS011;39550;52.230;5.194;2024-01-11T09:23:44;8.55;;;5.00;;
53646;SDS011;39550;52.230;5.194;2024-01-11T09:26:10;7.65;;;4.85;;
53646;SDS011;39550;52.230;5.194;2024-01-11T09:28:35;7.45;;;4.20;;
53646;SDS011;39550;52.230;5.194;2024-01-11T09:31:00;8.50;;;4.90;;
53646;SDS011;39550;52.230;5.194;2024-01-11T09:33:26;7.68;;;4.60;;
53646;SDS011;39550;52.230;5.194;2024-01-11T09:35:52;8.52;;;4.70;;
53646;SDS011;39550;52.230;5.194;2024-01-11T09:38:18;7.60;;;5.00;;
53646;SDS011;39550;52.230;5.194;2024-01-11T09:40:43;6.88;;;4.07;;
53646;SDS011;39550;52.230;5.194;2024-01-11T09:43:08;7.88;;;4.53;;
53646;SDS011;39550;52.230;5.194;2024-01-11T09:45:34;7.72;;;4.55;;
53646;SDS011;39550;52.230;5.194;2024-01-11T09:48:01;8.52;;;4.70;;
53646;SDS011;39550;52.230;5.194;2024-01-11T09:50:27;9.93;;;4.90;;
53646;SDS011;39550;52.230;5.194;2024-01-11T09:52:53;8.90;;;4.85;;
53646;SDS011;39550;52.230;5.194;2024-01-11T09:55:18;7.75;;;4.57;;
53646;SDS011;39550;52.230;5.194;2024-01-11T09:57:45;8.88;;;4.63;;
53646;SDS011;39550;52.230;5.194;2024-01-11T10:00:18;6.45;;;4.20;;
53646;SDS011;39550;52.230;5.194;2024-01-11T10:02:47;6.68;;;4.28;;
53646;SDS011;39550;52.230;5.194;2024-01-11T10:05:13;9.77;;;4.43;;
53646;SDS011;39550;52.230;5.194;2024-01-11T10:07:41;7.53;;;4.03;;
53646;SDS011;39550;52.230;5.194;2024-01-11T10:10:06;9.13;;;4.88;;
53646;SDS011;39550;52.230;5.194;2024-01-11T10:12:35;7.07;;;4.47;;
53646;SDS011;39550;52.230;5.194;2024-01-11T10:19:56;5.60;;;3.83;;
53646;SDS011;39550;52.230;5.194;2024-01-11T10:22:23;7.28;;;4.45;;
53646;SDS011;39550;52.230;5.194;2024-01-11T10:24:49;6.63;;;4.00;;
53646;SDS011;39550;52.230;5.194;2024-01-11T10:27:14;7.57;;;3.92;;
53646;SDS011;39550;52.230;5.194;2024-01-11T10:29:39;5.70;;;3.75;;
53646;SDS011;39550;52.230;5.194;2024-01-11T10:32:05;6.30;;;4.00;;
53646;SDS011;39550;52.230;5.194;2024-01-11T10:34:30;7.03;;;3.65;;
53646;SDS011;39550;52.230;5.194;2024-01-11T10:36:56;7.13;;;4.35;;
53646;SDS011;39550;52.230;5.194;2024-01-11T10:39:25;7.28;;;4.43;;
53646;SDS011;39550;52.230;5.194;2024-01-11T10:41:51;7.20;;;3.90;;
53646;SDS011;39550;52.230;5.194;2024-01-11T10:44:23;6.75;;;3.95;;
53646;SDS011;39550;52.230;5.194;2024-01-11T10:46:53;6.30;;;4.07;;
53646;SDS011;39550;52.230;5.194;2024-01-11T10:49:22;8.53;;;3.93;;
53646;SDS011;39550;52.230;5.194;2024-01-11T10:51:55;7.10;;;4.07;;
53646;SDS011;39550;52.230;5.194;2024-01-11T10:54:24;7.25;;;3.85;;
53646;SDS011;39550;52.230;5.194;2024-01-11T10:56:52;6.45;;;3.78;;
53646;SDS011;39550;52.230;5.194;2024-01-11T10:59:19;7.20;;;3.97;;
53646;SDS011;39550;52.230;5.194;2024-01-11T11:01:49;6.25;;;3.83;;
53646;SDS011;39550;52.230;5.194;2024-01-11T11:04:16;6.43;;;3.95;;
53646;SDS011;39550;52.230;5.194;2024-01-11T11:06:44;6.10;;;3.92;;
53646;SDS011;39550;52.230;5.194;2024-01-11T11:09:10;10.25;;;4.03;;
53646;SDS011;39550;52.230;5.194;2024-01-11T11:11:39;7.63;;;4.28;;
53646;SDS011;39550;52.230;5.194;2024-01-11T11:14:04;7.45;;;4.28;;
53646;SDS011;39550;52.230;5.194;2024-01-11T11:16:31;7.45;;;4.60;;
53646;SDS011;39550;52.230;5.194;2024-01-11T11:18:56;6.45;;;3.90;;
53646;SDS011;39550;52.230;5.194;2024-01-11T11:21:22;8.68;;;4.45;;
53646;SDS011;39550;52.230;5.194;2024-01-11T11:23:49;6.68;;;4.05;;
53646;SDS011;39550;52.230;5.194;2024-01-11T11:26:18;7.40;;;4.00;;
53646;SDS011;39550;52.230;5.194;2024-01-11T11:28:44;5.50;;;3.47;;
53646;SDS011;39550;52.230;5.194;2024-01-11T11:31:12;6.95;;;4.20;;
53646;SDS011;39550;52.230;5.194;2024-01-11T11:33:38;7.03;;;4.25;;
53646;SDS011;39550;52.230;5.194;2024-01-11T11:36:03;5.68;;;3.63;;
53646;SDS011;39550;52.230;5.194;2024-01-11T11:38:29;6.40;;;3.78;;
53646;SDS011;39550;52.230;5.194;2024-01-11T11:40:56;6.28;;;3.92;;
53646;SDS011;39550;52.230;5.194;2024-01-11T11:43:23;7.05;;;3.88;;
53646;SDS011;39550;52.230;5.194;2024-01-11T11:45:51;7.47;;;3.75;;
53646;SDS011;39550;52.230;5.194;2024-01-11T11:51:10;6.10;;;3.58;;
53646;SDS011;39550;52.230;5.194;2024-01-11T11:53:38;8.73;;;4.28;;
53646;SDS011;39550;52.230;5.194;2024-01-11T11:56:04;6.88;;;3.88;;
53646;SDS011;39550;52.230;5.194;2024-01-11T11:58:32;7.10;;;4.05;;
53646;SDS011;39550;52.230;5.194;2024-01-11T12:00:58;6.22;;;3.53;;
53646;SDS011;39550;52.230;5.194;2024-01-11T12:03:34;7.50;;;3.70;;
53646;SDS011;39550;52.230;5.194;2024-01-11T12:06:02;7.95;;;3.95;;
53646;SDS011;39550;52.230;5.194;2024-01-11T12:08:33;6.50;;;3.70;;
53646;SDS011;39550;52.230;5.194;2024-01-11T12:10:59;6.40;;;3.88;;
53646;SDS011;39550;52.230;5.194;2024-01-11T12:13:24;8.02;;;3.80;;
53646;SDS011;39550;52.230;5.194;2024-01-11T12:15:50;6.20;;;3.63;;
53646;SDS011;39550;52.230;5.194;2024-01-11T12:18:16;6.95;;;3.97;;
53646;SDS011;39550;52.230;5.194;2024-01-11T12:20:41;8.80;;;3.95;;
53646;SDS011;39550;52.230;5.194;2024-01-11T12:23:07;5.85;;;3.30;;
53646;SDS011;39550;52.230;5.194;2024-01-11T12:25:32;6.72;;;3.47;;
53646;SDS011;39550;52.230;5.194;2024-01-11T12:27:58;6.40;;;3.50;;
53646;SDS011;39550;52.230;5.194;2024-01-11T12:30:24;6.88;;;3.70;;
53646;SDS011;39550;52.230;5.194;2024-01-11T12:32:50;6.32;;;3.58;;
53646;SDS011;39550;52.230;5.194;2024-01-11T12:35:16;6.63;;;3.33;;
53646;SDS011;39550;52.230;5.194;2024-01-11T12:37:54;5.57;;;3.88;;
53646;SDS011;39550;52.230;5.194;2024-01-11T12:40:35;7.28;;;3.88;;
53646;SDS011;39550;52.230;5.194;2024-01-11T12:43:05;7.65;;;4.05;;
53646;SDS011;39550;52.230;5.194;2024-01-11T12:45:31;8.27;;;3.50;;
53646;SDS011;39550;52.230;5.194;2024-01-11T12:48:00;7.32;;;3.60;;
53646;SDS011;39550;52.230;5.194;2024-01-11T12:50:28;6.50;;;3.30;;
53646;SDS011;39550;52.230;5.194;2024-01-11T12:53:30;6.25;;;3.83;;
53646;SDS011;39550;52.230;5.194;2024-01-11T12:55:49;8.10;;;4.30;;
53646;SDS011;39550;52.230;5.194;2024-01-11T12:58:28;6.25;;;3.78;;
53646;SDS011;39550;52.230;5.194;2024-01-11T13:00:53;5.78;;;3.35;;
53646;SDS011;39550;52.230;5.194;2024-01-11T13:03:19;6.22;;;3.30;;
53646;SDS011;39550;52.230;5.194;2024-01-11T13:05:48;5.82;;;3.38;;
53646;SDS011;39550;52.230;5.194;2024-01-11T13:08:13;5.78;;;3.47;;
53646;SDS011;39550;52.230;5.194;2024-01-11T13:10:39;6.70;;;3.75;;
53646;SDS011;39550;52.230;5.194;2024-01-11T13:13:04;6.20;;;3.20;;
53646;SDS011;39550;52.230;5.194;2024-01-11T13:15:31;5.97;;;3.15;;
53646;SDS011;39550;52.230;5.194;2024-01-11T13:17:56;8.10;;;3.83;;
53646;SDS011;39550;52.230;5.194;2024-01-11T13:20:22;7.22;;;4.00;;
53646;SDS011;39550;52.230;5.194;2024-01-11T13:22:49;6.78;;;3.95;;
53646;SDS011;39550;52.230;5.194;2024-01-11T13:25:18;8.10;;;4.07;;
53646;SDS011;39550;52.230;5.194;2024-01-11T13:27:44;7.80;;;3.58;;
53646;SDS011;39550;52.230;5.194;2024-01-11T13:30:09;7.90;;;4.47;;
53646;SDS011;39550;52.230;5.194;2024-01-11T13:32:35;5.75;;;3.50;;
53646;SDS011;39550;52.230;5.194;2024-01-11T13:35:00;5.60;;;3.38;;
53646;SDS011;39550;52.230;5.194;2024-01-11T13:37:25;6.95;;;3.63;;
53646;SDS011;39550;52.230;5.194;2024-01-11T13:39:51;6.93;;;3.45;;
53646;SDS011;39550;52.230;5.194;2024-01-11T13:42:16;9.02;;;3.92;;
53646;SDS011;39550;52.230;5.194;2024-01-11T13:44:41;6.45;;;3.88;;
53646;SDS011;39550;52.230;5.194;2024-01-11T13:47:07;6.93;;;3.60;;
53646;SDS011;39550;52.230;5.194;2024-01-11T13:49:32;7.55;;;3.63;;
53646;SDS011;39550;52.230;5.194;2024-01-11T13:51:59;7.97;;;3.22;;
53646;SDS011;39550;52.230;5.194;2024-01-11T13:54:24;6.65;;;3.53;;
53646;SDS011;39550;52.230;5.194;2024-01-11T13:56:50;6.80;;;3.47;;
53646;SDS011;39550;52.230;5.194;2024-01-11T13:59:18;6.57;;;3.50;;
53646;SDS011;39550;52.230;5.194;2024-01-11T14:01:44;5.50;;;3.33;;
53646;SDS011;39550;52.230;5.194;2024-01-11T14:04:09;5.57;;;3.22;;
53646;SDS011;39550;52.230;5.194;2024-01-11T14:06:35;6.82;;;3.40;;
53646;SDS011;39550;52.230;5.194;2024-01-11T14:09:00;6.68;;;3.17;;
53646;SDS011;39550;52.230;5.194;2024-01-11T14:11:25;7.80;;;3.83;;
53646;SDS011;39550;52.230;5.194;2024-01-11T14:13:51;5.03;;;2.97;;
53646;SDS011;39550;52.230;5.194;2024-01-11T14:16:16;5.93;;;3.53;;
53646;SDS011;39550;52.230;5.194;2024-01-11T14:18:42;5.65;;;3.10;;
53646;SDS011;39550;52.230;5.194;2024-01-11T14:21:07;6.03;;;3.25;;
53646;SDS011;39550;52.230;5.194;2024-01-11T14:23:34;6.32;;;3.22;;
53646;SDS011;39550;52.230;5.194;2024-01-11T14:25:59;4.93;;;2.90;;
53646;SDS011;39550;52.230;5.194;2024-01-11T14:28:25;5.80;;;3.22;;
53646;SDS011;39550;52.230;5.194;2024-01-11T14:30:50;5.90;;;3.33;;
53646;SDS011;39550;52.230;5.194;2024-01-11T14:33:15;7.57;;;4.00;;
53646;SDS011;39550;52.230;5.194;2024-01-11T14:35:40;5.35;;;3.47;;
53646;SDS011;39550;52.230;5.194;2024-01-11T14:38:06;5.43;;;3.35;;
53646;SDS011;39550;52.230;5.194;2024-01-11T14:40:31;7.32;;;2.95;;
53646;SDS011;39550;52.230;5.194;2024-01-11T14:42:56;7.88;;;3.30;;
53646;SDS011;39550;52.230;5.194;2024-01-11T14:45:22;6.70;;;3.40;;